createdAt,value
2022-09-23T00:25:55.336Z,1019.05
2022-09-23T00:55:55.321Z,1018.86
2022-09-23T01:25:55.354Z,1018.71
2022-09-23T01:55:55.358Z,1018.5
2022-09-23T02:25:55.363Z,1018.4
2022-09-23T02:55:55.376Z,1018.37
2022-09-23T03:25:55.360Z,1018.18
2022-09-23T03:55:55.374Z,1018.02
2022-09-23T04:25:55.370Z,1017.82
2022-09-23T04:55:55.373Z,1017.78
2022-09-23T05:25:55.394Z,1017.75
2022-09-23T05:55:55.416Z,1017.82
2022-09-23T06:25:55.377Z,1017.93
2022-09-23T06:55:55.390Z,1017.99
2022-09-23T07:25:55.389Z,1017.83
2022-09-23T07:55:55.382Z,1017.87
2022-09-23T08:25:57.571Z,1017.78
2022-09-23T08:55:55.384Z,1017.56
2022-09-23T09:25:55.392Z,1017.27
2022-09-23T09:55:55.338Z,1017.06
2022-09-23T10:25:55.368Z,1016.8
2022-09-23T10:55:55.363Z,1016.55
2022-09-23T11:25:55.392Z,1016.34
2022-09-23T11:55:58.238Z,1015.94
2022-09-23T12:25:55.418Z,1015.66
2022-09-23T12:55:55.422Z,1015.34
2022-09-23T13:25:55.424Z,1015.08
2022-09-23T13:55:55.430Z,1014.59
2022-09-23T14:25:55.431Z,1014.56
2022-09-23T14:55:55.457Z,1014.39
2022-09-23T15:25:55.454Z,1014.12
2022-09-23T15:55:55.471Z,1013.94
2022-09-23T16:25:55.462Z,1013.96
2022-09-23T16:55:55.468Z,1013.78
2022-09-23T17:25:55.464Z,1013.74
2022-09-23T17:55:55.476Z,1013.66
2022-09-23T18:25:55.487Z,1013.72
2022-09-23T18:55:55.508Z,1013.71
2022-09-23T19:25:55.499Z,1013.59
2022-09-23T19:55:55.513Z,1013.62
2022-09-23T20:25:55.541Z,1013.58
2022-09-23T20:55:55.526Z,1013.38
2022-09-23T21:25:55.544Z,1013.45
2022-09-23T21:55:55.533Z,1013.27
2022-09-23T22:25:59.432Z,1013.06
2022-09-23T22:55:55.547Z,1013.04
2022-09-23T23:25:55.535Z,1013.04
2022-09-23T23:55:55.553Z,1012.9
